sensor_id;sensor_type;location;lat;lon;timestamp;P1;durP1;ratioP1;P2;durP2;ratioP2
76788;SDS011;65740;52.464;13.446;2023-04-25T00:00:21;14.07;;;12.87;;
76788;SDS011;65740;52.464;13.446;2023-04-25T00:02:46;14.67;;;13.30;;
76788;SDS011;65740;52.464;13.446;2023-04-25T00:05:12;14.03;;;12.63;;
76788;SDS011;65740;52.464;13.446;2023-04-25T00:07:40;13.70;;;12.40;;
76788;SDS011;65740;52.464;13.446;2023-04-25T00:10:07;14.80;;;13.37;;
76788;SDS011;65740;52.464;13.446;2023-04-25T00:12:34;13.83;;;12.53;;
76788;SDS011;65740;52.464;13.446;2023-04-25T00:15:00;13.50;;;12.20;;
76788;SDS011;65740;52.464;13.446;2023-04-25T00:17:26;13.67;;;12.37;;
76788;SDS011;65740;52.464;13.446;2023-04-25T00:19:52;13.90;;;12.47;;
76788;SDS011;65740;52.464;13.446;2023-04-25T00:22:18;13.20;;;11.90;;
76788;SDS011;65740;52.464;13.446;2023-04-25T00:24:44;12.27;;;11.13;;
76788;SDS011;65740;52.464;13.446;2023-04-25T00:27:09;13.67;;;12.30;;
76788;SDS011;65740;52.464;13.446;2023-04-25T00:29:35;11.77;;;10.67;;
76788;SDS011;65740;52.464;13.446;2023-04-25T00:32:01;12.60;;;11.37;;
76788;SDS011;65740;52.464;13.446;2023-04-25T00:34:27;12.50;;;11.30;;
76788;SDS011;65740;52.464;13.446;2023-04-25T00:36:52;12.60;;;11.40;;
76788;SDS011;65740;52.464;13.446;2023-04-25T00:39:18;12.93;;;11.70;;
76788;SDS011;65740;52.464;13.446;2023-04-25T00:41:44;13.50;;;12.20;;
76788;SDS011;65740;52.464;13.446;2023-04-25T00:44:10;12.00;;;10.80;;
76788;SDS011;65740;52.464;13.446;2023-04-25T00:46:37;11.47;;;10.37;;
76788;SDS011;65740;52.464;13.446;2023-04-25T00:49:04;12.03;;;10.93;;
76788;SDS011;65740;52.464;13.446;2023-04-25T00:51:29;10.93;;;9.93;;
76788;SDS011;65740;52.464;13.446;2023-04-25T00:53:57;11.13;;;10.10;;
76788;SDS011;65740;52.464;13.446;2023-04-25T00:56:23;11.63;;;10.53;;
76788;SDS011;65740;52.464;13.446;2023-04-25T00:58:50;11.93;;;10.83;;
76788;SDS011;65740;52.464;13.446;2023-04-25T01:01:21;11.83;;;10.73;;
76788;SDS011;65740;52.464;13.446;2023-04-25T01:03:47;12.40;;;11.20;;
76788;SDS011;65740;52.464;13.446;2023-04-25T01:06:15;11.33;;;10.23;;
76788;SDS011;65740;52.464;13.446;2023-04-25T01:08:41;10.57;;;9.67;;
76788;SDS011;65740;52.464;13.446;2023-04-25T01:11:07;10.53;;;9.53;;
76788;SDS011;65740;52.464;13.446;2023-04-25T01:13:33;10.50;;;9.50;;
76788;SDS011;65740;52.464;13.446;2023-04-25T01:15:59;10.90;;;9.90;;
76788;SDS011;65740;52.464;13.446;2023-04-25T01:18:25;10.57;;;9.67;;
76788;SDS011;65740;52.464;13.446;2023-04-25T01:20:51;10.70;;;9.70;;
76788;SDS011;65740;52.464;13.446;2023-04-25T01:23:21;9.37;;;8.50;;
76788;SDS011;65740;52.464;13.446;2023-04-25T01:25:48;9.93;;;9.10;;
76788;SDS011;65740;52.464;13.446;2023-04-25T01:28:14;10.23;;;9.23;;
76788;SDS011;65740;52.464;13.446;2023-04-25T01:30:40;9.93;;;9.03;;
76788;SDS011;65740;52.464;13.446;2023-04-25T01:33:07;10.80;;;8.80;;
76788;SDS011;65740;52.464;13.446;2023-04-25T01:35:33;10.60;;;9.60;;
76788;SDS011;65740;52.464;13.446;2023-04-25T01:37:59;9.77;;;8.97;;
76788;SDS011;65740;52.464;13.446;2023-04-25T01:40:24;9.17;;;8.37;;
76788;SDS011;65740;52.464;13.446;2023-04-25T01:42:51;9.10;;;8.30;;
76788;SDS011;65740;52.464;13.446;2023-04-25T01:45:17;10.10;;;7.93;;
76788;SDS011;65740;52.464;13.446;2023-04-25T01:47:43;9.13;;;8.33;;
76788;SDS011;65740;52.464;13.446;2023-04-25T01:50:13;8.90;;;8.20;;
76788;SDS011;65740;52.464;13.446;2023-04-25T01:52:40;9.07;;;8.20;;
76788;SDS011;65740;52.464;13.446;2023-04-25T01:55:06;9.73;;;8.83;;
76788;SDS011;65740;52.464;13.446;2023-04-25T01:57:31;8.67;;;7.87;;
76788;SDS011;65740;52.464;13.446;2023-04-25T01:59:58;8.07;;;7.37;;
76788;SDS011;65740;52.464;13.446;2023-04-25T02:02:25;9.60;;;8.70;;
76788;SDS011;65740;52.464;13.446;2023-04-25T02:04:51;8.57;;;7.87;;
76788;SDS011;65740;52.464;13.446;2023-04-25T02:07:17;8.07;;;7.27;;
76788;SDS011;65740;52.464;13.446;2023-04-25T02:09:42;8.77;;;8.07;;
76788;SDS011;65740;52.464;13.446;2023-04-25T02:12:09;8.70;;;8.00;;
76788;SDS011;65740;52.464;13.446;2023-04-25T02:14:35;8.43;;;7.63;;
76788;SDS011;65740;52.464;13.446;2023-04-25T02:17:01;8.03;;;7.33;;
76788;SDS011;65740;52.464;13.446;2023-04-25T02:19:26;8.03;;;7.30;;
76788;SDS011;65740;52.464;13.446;2023-04-25T02:21:52;7.37;;;6.70;;
76788;SDS011;65740;52.464;13.446;2023-04-25T02:24:17;7.20;;;6.60;;
76788;SDS011;65740;52.464;13.446;2023-04-25T02:26:43;7.07;;;6.47;;
76788;SDS011;65740;52.464;13.446;2023-04-25T02:29:09;7.30;;;6.70;;
76788;SDS011;65740;52.464;13.446;2023-04-25T02:31:35;7.57;;;6.87;;
76788;SDS011;65740;52.464;13.446;2023-04-25T02:34:00;6.63;;;6.13;;
76788;SDS011;65740;52.464;13.446;2023-04-25T02:36:26;6.60;;;6.10;;
76788;SDS011;65740;52.464;13.446;2023-04-25T02:38:52;7.40;;;6.70;;
76788;SDS011;65740;52.464;13.446;2023-04-25T02:41:18;7.13;;;6.50;;
76788;SDS011;65740;52.464;13.446;2023-04-25T02:43:43;7.47;;;6.67;;
76788;SDS011;65740;52.464;13.446;2023-04-25T02:46:09;6.93;;;6.33;;
76788;SDS011;65740;52.464;13.446;2023-04-25T02:48:35;6.90;;;6.30;;
76788;SDS011;65740;52.464;13.446;2023-04-25T02:51:00;7.50;;;6.80;;
76788;SDS011;65740;52.464;13.446;2023-04-25T02:53:26;6.90;;;6.30;;
76788;SDS011;65740;52.464;13.446;2023-04-25T02:55:51;6.70;;;6.10;;
76788;SDS011;65740;52.464;13.446;2023-04-25T02:58:17;6.20;;;5.70;;
76788;SDS011;65740;52.464;13.446;2023-04-25T03:00:43;7.00;;;6.40;;
76788;SDS011;65740;52.464;13.446;2023-04-25T03:03:09;6.90;;;6.30;;
76788;SDS011;65740;52.464;13.446;2023-04-25T03:05:35;6.57;;;6.00;;
76788;SDS011;65740;52.464;13.446;2023-04-25T03:08:01;6.70;;;6.20;;
76788;SDS011;65740;52.464;13.446;2023-04-25T03:10:27;6.30;;;5.77;;
76788;SDS011;65740;52.464;13.446;2023-04-25T03:12:53;7.37;;;6.67;;
76788;SDS011;65740;52.464;13.446;2023-04-25T03:15:19;6.37;;;5.87;;
76788;SDS011;65740;52.464;13.446;2023-04-25T03:17:44;6.40;;;5.80;;
76788;SDS011;65740;52.464;13.446;2023-04-25T03:20:10;5.67;;;5.17;;
76788;SDS011;65740;52.464;13.446;2023-04-25T03:22:36;6.37;;;5.87;;
76788;SDS011;65740;52.464;13.446;2023-04-25T03:25:02;6.87;;;6.30;;
76788;SDS011;65740;52.464;13.446;2023-04-25T03:27:28;6.73;;;6.13;;
76788;SDS011;65740;52.464;13.446;2023-04-25T03:29:54;5.90;;;5.40;;
76788;SDS011;65740;52.464;13.446;2023-04-25T03:32:20;5.47;;;4.97;;
76788;SDS011;65740;52.464;13.446;2023-04-25T03:34:45;6.10;;;5.60;;
76788;SDS011;65740;52.464;13.446;2023-04-25T03:37:11;6.30;;;5.80;;
76788;SDS011;65740;52.464;13.446;2023-04-25T03:39:36;5.80;;;5.30;;
76788;SDS011;65740;52.464;13.446;2023-04-25T03:42:03;5.70;;;5.30;;
76788;SDS011;65740;52.464;13.446;2023-04-25T03:44:29;5.47;;;5.07;;
76788;SDS011;65740;52.464;13.446;2023-04-25T03:46:54;5.97;;;5.47;;
76788;SDS011;65740;52.464;13.446;2023-04-25T03:49:20;5.70;;;5.30;;
76788;SDS011;65740;52.464;13.446;2023-04-25T03:51:45;5.10;;;4.70;;
76788;SDS011;65740;52.464;13.446;2023-04-25T03:54:11;5.90;;;5.40;;
76788;SDS011;65740;52.464;13.446;2023-04-25T03:56:37;5.13;;;4.73;;
76788;SDS011;65740;52.464;13.446;2023-04-25T03:59:02;5.67;;;5.27;;
76788;SDS011;65740;52.464;13.446;2023-04-25T04:01:28;6.47;;;5.97;;
76788;SDS011;65740;52.464;13.446;2023-04-25T04:03:54;5.60;;;5.17;;
76788;SDS011;65740;52.464;13.446;2023-04-25T04:06:19;5.80;;;5.30;;
76788;SDS011;65740;52.464;13.446;2023-04-25T04:08:45;5.83;;;5.33;;
76788;SDS011;65740;52.464;13.446;2023-04-25T04:11:11;5.70;;;5.20;;
76788;SDS011;65740;52.464;13.446;2023-04-25T04:13:37;5.77;;;5.27;;
76788;SDS011;65740;52.464;13.446;2023-04-25T04:16:03;5.50;;;5.10;;
76788;SDS011;65740;52.464;13.446;2023-04-25T04:18:29;5.50;;;5.10;;
76788;SDS011;65740;52.464;13.446;2023-04-25T04:20:55;5.67;;;5.27;;
76788;SDS011;65740;52.464;13.446;2023-04-25T04:23:23;5.60;;;5.20;;
76788;SDS011;65740;52.464;13.446;2023-04-25T04:25:48;5.17;;;4.77;;
76788;SDS011;65740;52.464;13.446;2023-04-25T04:28:14;5.50;;;5.10;;
76788;SDS011;65740;52.464;13.446;2023-04-25T04:30:41;5.30;;;4.90;;
76788;SDS011;65740;52.464;13.446;2023-04-25T04:33:07;5.10;;;4.70;;
76788;SDS011;65740;52.464;13.446;2023-04-25T04:35:33;5.40;;;5.00;;
76788;SDS011;65740;52.464;13.446;2023-04-25T04:37:59;5.37;;;5.00;;
76788;SDS011;65740;52.464;13.446;2023-04-25T04:40:25;5.00;;;4.63;;
76788;SDS011;65740;52.464;13.446;2023-04-25T04:42:51;4.93;;;4.53;;
76788;SDS011;65740;52.464;13.446;2023-04-25T04:45:18;5.33;;;4.93;;
76788;SDS011;65740;52.464;13.446;2023-04-25T04:47:44;4.80;;;4.50;;
76788;SDS011;65740;52.464;13.446;2023-04-25T04:50:10;4.63;;;4.23;;
76788;SDS011;65740;52.464;13.446;2023-04-25T04:52:36;5.00;;;4.60;;
76788;SDS011;65740;52.464;13.446;2023-04-25T04:55:04;4.70;;;4.30;;
76788;SDS011;65740;52.464;13.446;2023-04-25T04:57:33;5.03;;;4.63;;
76788;SDS011;65740;52.464;13.446;2023-04-25T04:59:59;4.80;;;4.40;;
76788;SDS011;65740;52.464;13.446;2023-04-25T05:02:25;5.23;;;4.83;;
76788;SDS011;65740;52.464;13.446;2023-04-25T05:04:51;4.60;;;4.30;;
76788;SDS011;65740;52.464;13.446;2023-04-25T05:07:17;4.70;;;4.40;;
76788;SDS011;65740;52.464;13.446;2023-04-25T05:09:44;4.60;;;4.30;;
76788;SDS011;65740;52.464;13.446;2023-04-25T05:12:09;4.47;;;4.17;;
76788;SDS011;65740;52.464;13.446;2023-04-25T05:14:35;5.20;;;4.80;;
76788;SDS011;65740;52.464;13.446;2023-04-25T05:17:00;4.53;;;4.23;;
76788;SDS011;65740;52.464;13.446;2023-04-25T05:19:28;4.33;;;4.03;;
76788;SDS011;65740;52.464;13.446;2023-04-25T05:21:54;4.73;;;4.33;;
76788;SDS011;65740;52.464;13.446;2023-04-25T05:24:20;4.80;;;4.40;;
76788;SDS011;65740;52.464;13.446;2023-04-25T05:26:45;4.87;;;4.47;;
76788;SDS011;65740;52.464;13.446;2023-04-25T05:29:11;4.50;;;4.20;;
76788;SDS011;65740;52.464;13.446;2023-04-25T05:31:36;4.40;;;4.10;;
76788;SDS011;65740;52.464;13.446;2023-04-25T05:34:02;4.00;;;3.70;;
76788;SDS011;65740;52.464;13.446;2023-04-25T05:36:28;4.47;;;4.17;;
76788;SDS011;65740;52.464;13.446;2023-04-25T05:38:53;4.17;;;3.80;;
76788;SDS011;65740;52.464;13.446;2023-04-25T05:41:19;4.40;;;4.10;;
76788;SDS011;65740;52.464;13.446;2023-04-25T05:43:45;4.67;;;4.27;;
76788;SDS011;65740;52.464;13.446;2023-04-25T05:46:13;4.23;;;3.93;;
76788;SDS011;65740;52.464;13.446;2023-04-25T05:48:39;4.33;;;4.03;;
76788;SDS011;65740;52.464;13.446;2023-04-25T05:51:05;3.93;;;3.63;;
76788;SDS011;65740;52.464;13.446;2023-04-25T05:53:30;4.57;;;4.27;;
76788;SDS011;65740;52.464;13.446;2023-04-25T05:55:56;4.50;;;4.13;;
76788;SDS011;65740;52.464;13.446;2023-04-25T05:58:21;4.20;;;3.80;;
76788;SDS011;65740;52.464;13.446;2023-04-25T06:00:47;3.80;;;3.60;;
76788;SDS011;65740;52.464;13.446;2023-04-25T06:03:13;4.33;;;4.03;;
76788;SDS011;65740;52.464;13.446;2023-04-25T06:05:42;4.50;;;3.90;;
76788;SDS011;65740;52.464;13.446;2023-04-25T06:08:08;4.60;;;4.20;;
76788;SDS011;65740;52.464;13.446;2023-04-25T06:10:34;4.33;;;3.93;;
76788;SDS011;65740;52.464;13.446;2023-04-25T06:13:01;3.77;;;3.47;;
76788;SDS011;65740;52.464;13.446;2023-04-25T06:15:26;4.40;;;4.10;;
76788;SDS011;65740;52.464;13.446;2023-04-25T06:17:52;4.20;;;3.90;;
76788;SDS011;65740;52.464;13.446;2023-04-25T06:20:17;3.67;;;3.47;;
76788;SDS011;65740;52.464;13.446;2023-04-25T06:22:47;3.90;;;3.60;;
76788;SDS011;65740;52.464;13.446;2023-04-25T06:25:13;3.97;;;3.67;;
76788;SDS011;65740;52.464;13.446;2023-04-25T06:27:39;3.97;;;3.67;;
76788;SDS011;65740;52.464;13.446;2023-04-25T06:30:05;4.27;;;3.97;;
76788;SDS011;65740;52.464;13.446;2023-04-25T06:32:31;3.57;;;3.20;;
76788;SDS011;65740;52.464;13.446;2023-04-25T06:34:57;3.70;;;3.40;;
76788;SDS011;65740;52.464;13.446;2023-04-25T06:37:23;3.90;;;3.60;;
76788;SDS011;65740;52.464;13.446;2023-04-25T06:39:48;3.90;;;3.67;;
76788;SDS011;65740;52.464;13.446;2023-04-25T06:42:14;4.40;;;3.90;;
76788;SDS011;65740;52.464;13.446;2023-04-25T06:44:39;3.53;;;3.33;;
76788;SDS011;65740;52.464;13.446;2023-04-25T06:47:05;3.80;;;3.50;;
76788;SDS011;65740;52.464;13.446;2023-04-25T06:49:31;3.87;;;3.60;;
76788;SDS011;65740;52.464;13.446;2023-04-25T06:51:56;4.13;;;3.83;;
76788;SDS011;65740;52.464;13.446;2023-04-25T06:54:22;3.90;;;3.70;;
76788;SDS011;65740;52.464;13.446;2023-04-25T06:56:49;3.93;;;3.63;;
76788;SDS011;65740;52.464;13.446;2023-04-25T06:59:15;4.30;;;4.00;;
76788;SDS011;65740;52.464;13.446;2023-04-25T07:01:40;4.23;;;3.93;;
76788;SDS011;65740;52.464;13.446;2023-04-25T07:04:06;4.00;;;3.70;;
76788;SDS011;65740;52.464;13.446;2023-04-25T07:06:32;4.10;;;3.80;;
76788;SDS011;65740;52.464;13.446;2023-04-25T07:08:57;4.80;;;4.40;;
76788;SDS011;65740;52.464;13.446;2023-04-25T07:11:23;8.23;;;4.60;;
76788;SDS011;65740;52.464;13.446;2023-04-25T07:13:48;4.90;;;4.60;;
76788;SDS011;65740;52.464;13.446;2023-04-25T07:16:14;4.30;;;4.10;;
76788;SDS011;65740;52.464;13.446;2023-04-25T07:18:40;4.83;;;4.40;;
76788;SDS011;65740;52.464;13.446;2023-04-25T07:21:06;5.27;;;4.87;;
76788;SDS011;65740;52.464;13.446;2023-04-25T07:23:32;5.13;;;4.63;;
76788;SDS011;65740;52.464;13.446;2023-04-25T07:25:57;4.90;;;4.50;;
76788;SDS011;65740;52.464;13.446;2023-04-25T07:28:23;5.10;;;4.70;;
76788;SDS011;65740;52.464;13.446;2023-04-25T07:30:48;5.03;;;4.63;;
76788;SDS011;65740;52.464;13.446;2023-04-25T07:33:14;5.20;;;4.80;;
76788;SDS011;65740;52.464;13.446;2023-04-25T07:35:40;5.33;;;4.93;;
76788;SDS011;65740;52.464;13.446;2023-04-25T07:38:05;5.50;;;5.00;;
76788;SDS011;65740;52.464;13.446;2023-04-25T07:40:31;4.80;;;4.40;;
76788;SDS011;65740;52.464;13.446;2023-04-25T07:42:57;4.70;;;4.40;;
76788;SDS011;65740;52.464;13.446;2023-04-25T07:45:23;5.33;;;4.40;;
76788;SDS011;65740;52.464;13.446;2023-04-25T07:47:49;4.77;;;4.37;;
76788;SDS011;65740;52.464;13.446;2023-04-25T07:50:15;5.30;;;4.80;;
76788;SDS011;65740;52.464;13.446;2023-04-25T07:52:40;8.00;;;4.67;;
76788;SDS011;65740;52.464;13.446;2023-04-25T07:55:06;4.90;;;4.50;;
76788;SDS011;65740;52.464;13.446;2023-04-25T07:57:32;5.50;;;5.00;;
76788;SDS011;65740;52.464;13.446;2023-04-25T07:59:57;5.10;;;4.70;;
76788;SDS011;65740;52.464;13.446;2023-04-25T08:02:23;4.67;;;4.37;;
76788;SDS011;65740;52.464;13.446;2023-04-25T08:04:51;5.90;;;4.97;;
76788;SDS011;65740;52.464;13.446;2023-04-25T08:07:16;5.07;;;4.67;;
76788;SDS011;65740;52.464;13.446;2023-04-25T08:09:42;5.10;;;4.60;;
76788;SDS011;65740;52.464;13.446;2023-04-25T08:12:07;4.87;;;4.53;;
76788;SDS011;65740;52.464;13.446;2023-04-25T08:14:33;6.20;;;4.70;;
76788;SDS011;65740;52.464;13.446;2023-04-25T08:17:02;6.13;;;5.00;;
76788;SDS011;65740;52.464;13.446;2023-04-25T08:19:29;5.33;;;4.80;;
76788;SDS011;65740;52.464;13.446;2023-04-25T08:21:55;4.93;;;4.53;;
76788;SDS011;65740;52.464;13.446;2023-04-25T08:24:21;4.83;;;4.23;;
76788;SDS011;65740;52.464;13.446;2023-04-25T08:26:48;18.93;;;5.87;;
76788;SDS011;65740;52.464;13.446;2023-04-25T08:29:13;5.97;;;4.93;;
76788;SDS011;65740;52.464;13.446;2023-04-25T08:31:39;5.90;;;4.57;;
76788;SDS011;65740;52.464;13.446;2023-04-25T08:34:05;6.10;;;4.50;;
76788;SDS011;65740;52.464;13.446;2023-04-25T08:36:31;5.30;;;4.23;;
76788;SDS011;65740;52.464;13.446;2023-04-25T08:38:57;4.73;;;4.33;;
76788;SDS011;65740;52.464;13.446;2023-04-25T08:41:23;5.27;;;4.60;;
76788;SDS011;65740;52.464;13.446;2023-04-25T08:43:50;8.27;;;4.60;;
76788;SDS011;65740;52.464;13.446;2023-04-25T08:46:18;4.70;;;4.00;;
76788;SDS011;65740;52.464;13.446;2023-04-25T08:48:44;6.93;;;4.47;;
76788;SDS011;65740;52.464;13.446;2023-04-25T08:51:15;5.93;;;4.30;;
76788;SDS011;65740;52.464;13.446;2023-04-25T08:53:46;5.77;;;4.37;;
76788;SDS011;65740;52.464;13.446;2023-04-25T08:56:16;6.30;;;4.20;;
76788;SDS011;65740;52.464;13.446;2023-04-25T08:58:50;9.33;;;5.37;;
76788;SDS011;65740;52.464;13.446;2023-04-25T09:01:17;7.93;;;5.07;;
76788;SDS011;65740;52.464;13.446;2023-04-25T09:03:44;11.90;;;5.10;;
76788;SDS011;65740;52.464;13.446;2023-04-25T09:06:13;8.63;;;4.50;;
76788;SDS011;65740;52.464;13.446;2023-04-25T09:08:39;5.77;;;4.27;;
76788;SDS011;65740;52.464;13.446;2023-04-25T09:11:06;6.27;;;4.90;;
76788;SDS011;65740;52.464;13.446;2023-04-25T09:13:32;5.10;;;4.60;;
76788;SDS011;65740;52.464;13.446;2023-04-25T09:15:58;8.20;;;4.47;;
76788;SDS011;65740;52.464;13.446;2023-04-25T09:18:31;5.13;;;4.27;;
76788;SDS011;65740;52.464;13.446;2023-04-25T09:21:08;6.00;;;4.03;;
76788;SDS011;65740;52.464;13.446;2023-04-25T09:23:54;7.80;;;4.50;;
76788;SDS011;65740;52.464;13.446;2023-04-25T09:26:20;7.03;;;4.50;;
76788;SDS011;65740;52.464;13.446;2023-04-25T09:28:46;5.43;;;4.93;;
76788;SDS011;65740;52.464;13.446;2023-04-25T09:31:21;10.00;;;5.63;;
76788;SDS011;65740;52.464;13.446;2023-04-25T09:33:49;5.10;;;4.67;;
76788;SDS011;65740;52.464;13.446;2023-04-25T09:36:14;7.03;;;5.27;;
76788;SDS011;65740;52.464;13.446;2023-04-25T09:38:41;9.37;;;5.07;;
76788;SDS011;65740;52.464;13.446;2023-04-25T09:41:11;7.80;;;4.90;;
76788;SDS011;65740;52.464;13.446;2023-04-25T09:43:37;8.97;;;5.80;;
76788;SDS011;65740;52.464;13.446;2023-04-25T09:46:10;8.10;;;4.93;;
76788;SDS011;65740;52.464;13.446;2023-04-25T09:48:38;6.83;;;5.60;;
76788;SDS011;65740;52.464;13.446;2023-04-25T09:51:08;5.30;;;4.90;;
76788;SDS011;65740;52.464;13.446;2023-04-25T09:53:34;5.77;;;5.27;;
76788;SDS011;65740;52.464;13.446;2023-04-25T09:56:03;14.83;;;5.70;;
76788;SDS011;65740;52.464;13.446;2023-04-25T09:58:33;8.63;;;5.03;;
76788;SDS011;65740;52.464;13.446;2023-04-25T10:01:01;10.53;;;4.70;;
76788;SDS011;65740;52.464;13.446;2023-04-25T10:03:33;20.63;;;6.13;;
76788;SDS011;65740;52.464;13.446;2023-04-25T10:06:01;12.63;;;5.37;;
76788;SDS011;65740;52.464;13.446;2023-04-25T10:08:31;12.87;;;5.50;;
76788;SDS011;65740;52.464;13.446;2023-04-25T10:10:59;14.73;;;5.47;;
76788;SDS011;65740;52.464;13.446;2023-04-25T10:13:27;11.00;;;5.13;;
76788;SDS011;65740;52.464;13.446;2023-04-25T10:15:56;15.83;;;5.07;;
76788;SDS011;65740;52.464;13.446;2023-04-25T10:18:23;17.77;;;5.47;;
76788;SDS011;65740;52.464;13.446;2023-04-25T10:20:54;18.27;;;5.20;;
76788;SDS011;65740;52.464;13.446;2023-04-25T10:23:21;9.97;;;5.80;;
76788;SDS011;65740;52.464;13.446;2023-04-25T10:25:48;12.17;;;5.50;;
76788;SDS011;65740;52.464;13.446;2023-04-25T10:28:18;9.07;;;5.10;;
76788;SDS011;65740;52.464;13.446;2023-04-25T10:30:58;10.30;;;5.43;;
76788;SDS011;65740;52.464;13.446;2023-04-25T10:33:35;13.30;;;5.33;;
76788;SDS011;65740;52.464;13.446;2023-04-25T10:36:08;11.83;;;5.80;;
76788;SDS011;65740;52.464;13.446;2023-04-25T10:38:35;5.80;;;4.80;;
76788;SDS011;65740;52.464;13.446;2023-04-25T10:41:03;8.60;;;5.13;;
76788;SDS011;65740;52.464;13.446;2023-04-25T10:43:35;19.77;;;5.70;;
76788;SDS011;65740;52.464;13.446;2023-04-25T10:48:56;9.30;;;5.50;;
76788;SDS011;65740;52.464;13.446;2023-04-25T10:51:30;8.70;;;5.53;;
76788;SDS011;65740;52.464;13.446;2023-04-25T10:56:28;14.23;;;6.00;;
76788;SDS011;65740;52.464;13.446;2023-04-25T10:59:03;41.43;;;15.40;;
76788;SDS011;65740;52.464;13.446;2023-04-25T11:01:35;114.43;;;38.30;;
76788;SDS011;65740;52.464;13.446;2023-04-25T11:04:22;99.53;;;36.67;;
76788;SDS011;65740;52.464;13.446;2023-04-25T11:09:27;171.33;;;56.47;;
76788;SDS011;65740;52.464;13.446;2023-04-25T11:11:53;198.13;;;68.17;;
76788;SDS011;65740;52.464;13.446;2023-04-25T11:14:20;210.50;;;71.50;;
76788;SDS011;65740;52.464;13.446;2023-04-25T11:16:46;226.90;;;70.77;;
76788;SDS011;65740;52.464;13.446;2023-04-25T11:19:13;225.37;;;79.53;;
76788;SDS011;65740;52.464;13.446;2023-04-25T11:21:38;215.20;;;72.70;;
76788;SDS011;65740;52.464;13.446;2023-04-25T11:24:04;230.33;;;80.30;;
76788;SDS011;65740;52.464;13.446;2023-04-25T11:26:30;246.63;;;81.03;;
76788;SDS011;65740;52.464;13.446;2023-04-25T11:28:59;245.20;;;78.40;;
76788;SDS011;65740;52.464;13.446;2023-04-25T11:31:25;223.23;;;76.93;;
76788;SDS011;65740;52.464;13.446;2023-04-25T11:33:52;211.33;;;76.90;;
76788;SDS011;65740;52.464;13.446;2023-04-25T11:36:20;196.93;;;72.43;;
76788;SDS011;65740;52.464;13.446;2023-04-25T11:38:47;196.60;;;69.73;;
76788;SDS011;65740;52.464;13.446;2023-04-25T11:41:13;214.07;;;71.33;;
76788;SDS011;65740;52.464;13.446;2023-04-25T11:43:38;207.07;;;69.00;;
76788;SDS011;65740;52.464;13.446;2023-04-25T11:46:07;175.97;;;68.10;;
76788;SDS011;65740;52.464;13.446;2023-04-25T11:48:39;175.20;;;65.13;;
76788;SDS011;65740;52.464;13.446;2023-04-25T11:51:06;167.90;;;62.80;;
76788;SDS011;65740;52.464;13.446;2023-04-25T11:53:31;168.07;;;57.83;;
76788;SDS011;65740;52.464;13.446;2023-04-25T11:55:57;160.43;;;59.00;;
76788;SDS011;65740;52.464;13.446;2023-04-25T11:58:23;161.73;;;57.60;;
76788;SDS011;65740;52.464;13.446;2023-04-25T12:00:50;158.37;;;58.47;;
76788;SDS011;65740;52.464;13.446;2023-04-25T12:03:17;149.77;;;54.83;;
76788;SDS011;65740;52.464;13.446;2023-04-25T12:05:44;131.30;;;52.00;;
76788;SDS011;65740;52.464;13.446;2023-04-25T12:08:14;98.07;;;38.70;;
76788;SDS011;65740;52.464;13.446;2023-04-25T12:10:43;107.93;;;41.97;;
76788;SDS011;65740;52.464;13.446;2023-04-25T12:13:20;106.73;;;43.27;;
76788;SDS011;65740;52.464;13.446;2023-04-25T12:15:47;89.47;;;37.10;;
76788;SDS011;65740;52.464;13.446;2023-04-25T12:18:13;82.73;;;33.13;;
76788;SDS011;65740;52.464;13.446;2023-04-25T12:20:39;70.80;;;30.40;;
76788;SDS011;65740;52.464;13.446;2023-04-25T12:23:06;71.10;;;31.30;;
76788;SDS011;65740;52.464;13.446;2023-04-25T12:25:43;61.43;;;28.73;;
76788;SDS011;65740;52.464;13.446;2023-04-25T12:28:10;63.13;;;29.23;;
76788;SDS011;65740;52.464;13.446;2023-04-25T12:30:58;54.07;;;26.50;;
76788;SDS011;65740;52.464;13.446;2023-04-25T12:33:26;62.57;;;26.50;;
76788;SDS011;65740;52.464;13.446;2023-04-25T12:35:56;51.03;;;22.70;;
76788;SDS011;65740;52.464;13.446;2023-04-25T12:40:52;43.97;;;19.93;;
76788;SDS011;65740;52.464;13.446;2023-04-25T12:43:19;38.57;;;16.33;;
76788;SDS011;65740;52.464;13.446;2023-04-25T12:45:47;30.53;;;15.77;;
76788;SDS011;65740;52.464;13.446;2023-04-25T12:48:18;37.53;;;16.23;;
76788;SDS011;65740;52.464;13.446;2023-04-25T12:50:45;36.10;;;16.00;;
76788;SDS011;65740;52.464;13.446;2023-04-25T12:53:13;29.23;;;14.10;;
76788;SDS011;65740;52.464;13.446;2023-04-25T12:55:40;32.50;;;13.80;;
76788;SDS011;65740;52.464;13.446;2023-04-25T12:58:06;31.27;;;13.30;;
76788;SDS011;65740;52.464;13.446;2023-04-25T13:00:32;21.23;;;13.57;;
76788;SDS011;65740;52.464;13.446;2023-04-25T13:02:58;30.73;;;12.47;;
76788;SDS011;65740;52.464;13.446;2023-04-25T13:05:24;24.90;;;11.80;;
76788;SDS011;65740;52.464;13.446;2023-04-25T13:07:50;22.57;;;11.40;;
76788;SDS011;65740;52.464;13.446;2023-04-25T13:10:16;19.27;;;10.80;;
76788;SDS011;65740;52.464;13.446;2023-04-25T13:12:43;18.90;;;10.43;;
76788;SDS011;65740;52.464;13.446;2023-04-25T13:15:09;21.67;;;10.50;;
76788;SDS011;65740;52.464;13.446;2023-04-25T13:17:36;24.10;;;9.90;;
76788;SDS011;65740;52.464;13.446;2023-04-25T13:20:03;16.93;;;10.13;;
76788;SDS011;65740;52.464;13.446;2023-04-25T13:22:34;18.50;;;9.30;;
76788;SDS011;65740;52.464;13.446;2023-04-25T13:25:02;14.03;;;9.30;;
76788;SDS011;65740;52.464;13.446;2023-04-25T13:27:28;16.87;;;8.83;;
76788;SDS011;65740;52.464;13.446;2023-04-25T13:29:55;14.93;;;8.13;;
76788;SDS011;65740;52.464;13.446;2023-04-25T13:32:21;16.43;;;8.73;;
76788;SDS011;65740;52.464;13.446;2023-04-25T13:34:46;15.10;;;7.30;;
76788;SDS011;65740;52.464;13.446;2023-04-25T13:37:12;15.83;;;7.70;;
76788;SDS011;65740;52.464;13.446;2023-04-25T13:39:38;10.10;;;7.67;;
76788;SDS011;65740;52.464;13.446;2023-04-25T13:42:04;12.00;;;7.13;;
76788;SDS011;65740;52.464;13.446;2023-04-25T13:44:29;11.47;;;6.80;;
76788;SDS011;65740;52.464;13.446;2023-04-25T13:46:55;11.00;;;7.00;;
76788;SDS011;65740;52.464;13.446;2023-04-25T13:49:21;12.53;;;6.57;;
76788;SDS011;65740;52.464;13.446;2023-04-25T13:51:47;10.23;;;6.50;;
76788;SDS011;65740;52.464;13.446;2023-04-25T13:54:13;9.80;;;6.97;;
76788;SDS011;65740;52.464;13.446;2023-04-25T13:56:39;11.90;;;7.33;;
76788;SDS011;65740;52.464;13.446;2023-04-25T13:59:07;10.60;;;6.30;;
76788;SDS011;65740;52.464;13.446;2023-04-25T14:01:32;8.90;;;6.47;;
76788;SDS011;65740;52.464;13.446;2023-04-25T14:04:00;8.80;;;6.00;;
76788;SDS011;65740;52.464;13.446;2023-04-25T14:06:29;13.70;;;6.60;;
76788;SDS011;65740;52.464;13.446;2023-04-25T14:08:56;10.60;;;6.07;;
76788;SDS011;65740;52.464;13.446;2023-04-25T14:11:22;11.40;;;6.10;;
76788;SDS011;65740;52.464;13.446;2023-04-25T14:13:47;12.13;;;5.90;;
76788;SDS011;65740;52.464;13.446;2023-04-25T14:16:14;10.57;;;5.93;;
76788;SDS011;65740;52.464;13.446;2023-04-25T14:18:40;11.40;;;6.07;;
76788;SDS011;65740;52.464;13.446;2023-04-25T14:21:06;11.67;;;6.00;;
76788;SDS011;65740;52.464;13.446;2023-04-25T14:23:32;13.63;;;6.80;;
76788;SDS011;65740;52.464;13.446;2023-04-25T14:25:57;17.40;;;6.10;;
76788;SDS011;65740;52.464;13.446;2023-04-25T14:28:23;8.40;;;5.53;;
76788;SDS011;65740;52.464;13.446;2023-04-25T14:30:48;16.83;;;6.00;;
76788;SDS011;65740;52.464;13.446;2023-04-25T14:33:14;6.70;;;5.50;;